»·PEaware :: UAL250 KPDX-KSFO

UAL250 :: KPDX-KSFO

FLIGHT INFORMATION

Flight Status: Arrived
Operator:
United Airlines
More flights by this operator :: More flights under this callsign
Pilot: Andrew J. (13363)
Aircraft: AIRBUS A320
(A320)
More flights by this aircraft type
Origin: KPDX Portland Intl
United States
Destination: KSFO San Francisco Intl
United States
More flights between these airports :: More routes between these airports
Route: MINNE5 EASON Q1 ETCHY MLBEC BDEGA2
File this flight plan on PilotEdge
Remarks: it's been a minute for me being on PE.. excuse my noobness ;)
Altitude:
(Current/Filed)
37,000ft
Speed:
(Current/Filed)
439kts
Departed: 02-May-18 03:28 PM
Arrived: 02-May-18 04:47 PM
Distance/Time
Traveled:
478nm/1:19
Distance/Time
To Go:
Arrived

Flight Plot

Page will automatically refresh every two minutes.


Map Options




Map Legend


Flown Route
Filed Route
Departure Airport
Arrival Airport
Navaid (VOR, NDB)
Fix

Horizontal Profiles

Position Reports

Time Latitude Longitude Heading Altitude Ground
Speed
02-May-18 14:54 45.590044 -122.591048 209 25ft 0kts
02-May-18 14:55 45.590044 -122.591048 209 25ft 0kts
02-May-18 14:59 45.590044 -122.591048 209 25ft 0kts
02-May-18 15:00 45.590044 -122.591048 209 25ft 0kts
02-May-18 15:01 45.590044 -122.591048 209 25ft 0kts
02-May-18 15:02 45.590044 -122.591048 209 25ft 0kts
02-May-18 15:03 45.590044 -122.591048 209 25ft 0kts
02-May-18 15:04 45.590044 -122.591048 209 25ft 0kts
02-May-18 15:05 45.590044 -122.591048 209 25ft 0kts
02-May-18 15:06 45.590044 -122.591048 209 25ft 0kts
02-May-18 15:07 45.590044 -122.591048 209 25ft 0kts
02-May-18 15:08 45.590044 -122.591048 209 25ft 0kts
02-May-18 15:09 45.590044 -122.591048 209 25ft 0kts
02-May-18 15:10 45.590044 -122.591048 209 25ft 0kts
02-May-18 15:11 45.590044 -122.591048 209 25ft 0kts
02-May-18 15:12 45.590044 -122.591048 209 25ft 0kts
02-May-18 15:13 45.590044 -122.591048 209 25ft 0kts
02-May-18 15:14 45.590044 -122.591048 209 25ft 0kts
02-May-18 15:15 45.590063 -122.591032 209 25ft 1kts
02-May-18 15:16 45.590553 -122.590702 179 25ft 2kts
02-May-18 15:17 45.590929 -122.591044 118 25ft 0kts
02-May-18 15:18 45.590929 -122.591043 119 25ft 0kts
02-May-18 15:19 45.590929 -122.591043 118 25ft 0kts
02-May-18 15:20 45.590925 -122.591033 118 25ft 0kts
02-May-18 15:21 45.590279 -122.588091 82 25ft 8kts
02-May-18 15:22 45.589328 -122.584835 122 25ft 10kts
02-May-18 15:23 45.587786 -122.580828 119 25ft 15kts
02-May-18 15:24 45.585426 -122.574816 118 25ft 19kts
02-May-18 15:25 45.583235 -122.569161 119 25ft 12kts
02-May-18 15:26 45.583590 -122.566866 299 25ft 6kts
02-May-18 15:27 45.599777 -122.608916 299 1403ft 176kts
02-May-18 15:28 45.622065 -122.683789 301 4006ft 247kts
02-May-18 15:29 45.659750 -122.776262 300 6781ft 299kts
02-May-18 15:30 45.658875 -122.884822 246 7962ft 291kts
02-May-18 15:31 45.587048 -122.927588 180 10796ft 322kts
02-May-18 15:32 45.498286 -122.936983 182 12508ft 373kts
02-May-18 15:33 45.399237 -122.948326 183 14794ft 395kts
02-May-18 15:35 45.288025 -122.961191 184 17075ft 414kts
02-May-18 15:36 45.174980 -122.992529 198 19168ft 431kts
02-May-18 15:37 45.063740 -123.048633 192 21857ft 422kts
02-May-18 15:38 44.956795 -123.102134 194 23944ft 425kts
02-May-18 15:39 44.844631 -123.158285 200 24421ft 469kts
02-May-18 15:40 44.722335 -123.219064 203 26069ft 474kts
02-May-18 15:41 44.597510 -123.280854 203 27425ft 483kts
02-May-18 15:42 44.467158 -123.327872 181 28677ft 499kts
02-May-18 15:43 44.327384 -123.322009 179 29826ft 507kts
02-May-18 15:44 44.186313 -123.316325 179 30868ft 515kts
02-May-18 15:45 44.043603 -123.310641 179 31952ft 519kts
02-May-18 15:46 43.900379 -123.304946 179 33184ft 516kts
02-May-18 15:47 43.763611 -123.299558 179 34161ft 515kts
02-May-18 15:48 43.620804 -123.293957 179 35125ft 514kts
02-May-18 15:49 43.484038 -123.288616 179 36014ft 512kts
02-May-18 15:50 43.344460 -123.283202 179 36822ft 511kts
02-May-18 15:51 43.202695 -123.277723 179 37155ft 511kts
02-May-18 15:52 43.060943 -123.272267 179 37156ft 511kts
02-May-18 15:53 42.919063 -123.266828 179 37157ft 512kts
02-May-18 15:54 42.782157 -123.261601 179 37156ft 510kts
02-May-18 15:55 42.640894 -123.256237 179 37197ft 510kts
02-May-18 15:56 42.499473 -123.250898 179 37206ft 511kts
02-May-18 15:57 42.358038 -123.245654 179 37217ft 511kts
02-May-18 15:58 42.216431 -123.240440 179 37222ft 512kts
02-May-18 15:59 42.082415 -123.235523 179 37169ft 512kts
02-May-18 16:00 41.940938 -123.230355 179 37167ft 512kts
02-May-18 16:01 41.803531 -123.225358 179 37156ft 511kts
02-May-18 16:02 41.662175 -123.220240 179 37142ft 510kts
02-May-18 16:03 41.520868 -123.215277 179 37147ft 511kts
02-May-18 16:04 41.380919 -123.210448 179 37157ft 511kts
02-May-18 16:05 41.240145 -123.206420 180 37164ft 511kts
02-May-18 16:06 41.098513 -123.202872 179 37164ft 512kts
02-May-18 16:07 40.956502 -123.199293 179 37164ft 512kts
02-May-18 16:08 40.819159 -123.195842 180 37158ft 511kts
02-May-18 16:09 40.678035 -123.192312 179 37089ft 510kts
02-May-18 16:10 40.537106 -123.188805 179 37089ft 510kts
02-May-18 16:11 40.395589 -123.185298 180 37100ft 511kts
02-May-18 16:12 40.254050 -123.181805 180 37107ft 511kts
02-May-18 16:13 40.112798 -123.178332 179 37052ft 512kts
02-May-18 16:14 39.979720 -123.175072 179 37058ft 512kts
02-May-18 16:15 39.847044 -123.169437 180 37062ft 510kts
02-May-18 16:16 39.705986 -123.162838 180 37053ft 507kts
02-May-18 16:17 39.566463 -123.159608 185 37060ft 503kts
02-May-18 16:18 39.426585 -123.161377 181 37081ft 505kts
02-May-18 16:19 39.286408 -123.158283 180 36602ft 507kts
02-May-18 16:20 39.145431 -123.153107 172 35650ft 512kts
02-May-18 16:21 39.019095 -123.076387 142 34703ft 501kts
02-May-18 16:22 38.900387 -122.979886 145 33264ft 509kts
02-May-18 16:22 38.831432 -122.945927 165 31587ft 523kts
02-May-18 16:23 38.691968 -122.904880 165 29120ft 519kts
02-May-18 16:24 38.553156 -122.863904 165 27039ft 503kts
02-May-18 16:25 38.421051 -122.824997 165 25313ft 481kts
02-May-18 16:26 38.294724 -122.787990 164 23359ft 463kts
02-May-18 16:27 38.173487 -122.752602 164 20009ft 436kts
02-May-18 16:29 38.040038 -122.713870 164 17935ft 416kts
02-May-18 16:30 37.930819 -122.682269 164 16213ft 398kts
02-May-18 16:31 37.846973 -122.617928 135 14225ft 368kts
02-May-18 16:31 37.784520 -122.551440 137 11689ft 347kts
02-May-18 16:32 37.717257 -122.480135 137 11025ft 306kts
02-May-18 16:33 37.652268 -122.411040 137 11022ft 306kts
02-May-18 16:34 37.583725 -122.351334 152 10823ft 302kts
02-May-18 16:35 37.510008 -122.307132 153 8546ft 292kts
02-May-18 16:36 37.438734 -122.261247 138 6294ft 284kts
02-May-18 16:37 37.403271 -122.173013 113 6000ft 284kts
02-May-18 16:38 37.377070 -122.081914 79 5994ft 278kts
02-May-18 16:39 37.432403 -122.038946 353 6003ft 259kts
02-May-18 16:40 37.491363 -122.084471 316 4749ft 247kts
02-May-18 16:41 37.524900 -122.151194 299 3639ft 214kts
02-May-18 16:42 37.551148 -122.213853 299 2620ft 185kts
02-May-18 16:43 37.573276 -122.266679 295 1638ft 158kts
02-May-18 16:44 37.591128 -122.309321 294 908ft 129kts
02-May-18 16:45 37.607897 -122.349100 292 197ft 128kts
02-May-18 16:46 37.618888 -122.376183 283 21ft 30kts
02-May-18 16:47 37.618955 -122.378402 264 21ft 1kts
02-May-18 16:48 37.619255 -122.381054 297 21ft 11kts
02-May-18 16:49 37.620505 -122.384207 301 21ft 4kts
02-May-18 16:50 37.619534 -122.385590 180 21ft 7kts
02-May-18 16:51 37.618784 -122.385192 155 21ft 0kts
02-May-18 16:52 37.618784 -122.385192 155 21ft 0kts
02-May-18 16:53 37.618784 -122.385192 155 21ft 0kts
02-May-18 16:54 37.618784 -122.385192 155 21ft 0kts
02-May-18 16:55 37.618784 -122.385192 155 21ft 0kts
02-May-18 16:56 37.618784 -122.385192 155 21ft 0kts
02-May-18 16:57 37.618784 -122.385192 155 21ft 0kts
02-May-18 16:58 37.618784 -122.385192 155 21ft 0kts
02-May-18 16:59 37.618784 -122.385192 155 21ft 0kts
02-May-18 17:00 37.618784 -122.385192 155 21ft 0kts

Navigation Log

Ident Type
1. KPDX Airport
2. EASON Fix
3. EBINY Fix
4. ENVIE Fix
5. ETCHY Fix
6. KSFO Airport